createdAt,value
2019-02-12T00:00:32.168Z,19.80
2019-02-12T00:02:58.822Z,19.80
2019-02-12T00:05:25.470Z,19.80
2019-02-12T00:07:52.158Z,19.79
2019-02-12T00:10:18.819Z,19.74
2019-02-12T00:12:45.462Z,19.73
2019-02-12T00:15:12.219Z,19.71
2019-02-12T00:17:38.861Z,19.71
2019-02-12T00:20:05.551Z,19.69
2019-02-12T00:22:32.264Z,19.69
2019-02-12T00:24:58.909Z,19.67
2019-02-12T00:27:25.540Z,19.70
2019-02-12T00:29:52.186Z,19.69
2019-02-12T00:32:18.837Z,19.68
2019-02-12T00:34:45.522Z,19.71
2019-02-12T00:37:12.184Z,19.67
2019-02-12T00:39:38.841Z,19.69
2019-02-12T00:42:05.474Z,19.68
2019-02-12T00:44:32.175Z,19.69
2019-02-12T00:46:58.818Z,19.67
2019-02-12T00:49:25.527Z,19.56
2019-02-12T00:51:52.209Z,19.58
2019-02-12T00:54:18.903Z,19.54
2019-02-12T00:56:45.574Z,19.54
2019-02-12T00:59:12.213Z,19.51
2019-02-12T01:01:38.879Z,19.48
2019-02-12T01:04:05.516Z,19.45
2019-02-12T01:06:32.155Z,19.45
2019-02-12T01:08:58.862Z,19.42
2019-02-12T01:11:25.538Z,19.38
2019-02-12T01:13:52.187Z,19.34
2019-02-12T01:16:18.839Z,19.36
2019-02-12T01:18:45.633Z,19.30
2019-02-12T01:21:12.294Z,19.27
2019-02-12T01:23:38.994Z,19.27
2019-02-12T01:26:05.635Z,19.27
2019-02-12T01:28:32.295Z,19.17
2019-02-12T01:30:58.926Z,19.16
2019-02-12T01:33:25.574Z,19.13
2019-02-12T01:35:52.238Z,19.10
2019-02-12T01:38:18.896Z,19.06
2019-02-12T01:40:45.900Z,19.06
2019-02-12T01:43:12.236Z,19.03
2019-02-12T01:45:38.905Z,19.03
2019-02-12T01:48:05.571Z,19.00
2019-02-12T01:50:32.215Z,18.99
2019-02-12T01:52:58.876Z,18.97
2019-02-12T01:55:25.520Z,18.92
2019-02-12T01:57:52.181Z,18.96
2019-02-12T02:00:19.021Z,18.90
2019-02-12T02:02:45.626Z,18.91
2019-02-12T02:05:12.280Z,18.85
2019-02-12T02:07:38.919Z,18.87
2019-02-12T02:10:05.598Z,18.87
2019-02-12T02:12:32.235Z,18.84
2019-02-12T02:14:58.913Z,18.82
2019-02-12T02:17:25.550Z,18.77
2019-02-12T02:19:52.191Z,18.76
2019-02-12T02:22:18.918Z,18.78
2019-02-12T02:24:45.588Z,18.78
2019-02-12T02:27:12.224Z,18.75
2019-02-12T02:29:38.866Z,18.72
2019-02-12T02:32:05.527Z,18.70
2019-02-12T02:34:32.173Z,18.65
2019-02-12T02:36:58.838Z,18.69
2019-02-12T02:39:25.485Z,18.66
2019-02-12T02:41:52.166Z,18.63
2019-02-12T02:44:18.821Z,18.63
2019-02-12T02:46:45.462Z,18.62
2019-02-12T02:49:12.135Z,18.58
2019-02-12T02:51:38.866Z,18.50
2019-02-12T02:54:05.549Z,18.54
2019-02-12T02:56:32.187Z,18.56
2019-02-12T02:58:58.876Z,18.50
2019-02-12T03:01:25.523Z,18.51
2019-02-12T03:03:52.209Z,18.48
2019-02-12T03:06:18.897Z,18.46
2019-02-12T03:08:45.545Z,18.45
2019-02-12T03:11:12.201Z,18.43
2019-02-12T03:13:38.891Z,18.43
2019-02-12T03:16:05.530Z,18.40
2019-02-12T03:18:32.169Z,18.39
2019-02-12T03:20:58.870Z,18.37
2019-02-12T03:23:25.515Z,18.37
2019-02-12T03:25:52.199Z,18.38
2019-02-12T03:28:21.932Z,18.35
2019-02-12T03:30:48.591Z,18.35
2019-02-12T03:33:15.258Z,18.35
2019-02-12T03:35:41.905Z,18.33
2019-02-12T03:38:08.600Z,18.35
2019-02-12T03:40:35.237Z,18.33
2019-02-12T03:43:01.880Z,18.25
2019-02-12T03:45:28.529Z,18.30
2019-02-12T03:47:55.159Z,18.35
2019-02-12T03:50:21.959Z,18.47
2019-02-12T03:52:48.603Z,18.71
2019-02-12T03:55:15.279Z,18.81
2019-02-12T03:57:41.935Z,18.74
2019-02-12T04:00:08.583Z,18.63
2019-02-12T04:02:35.316Z,18.53
2019-02-12T04:05:02.025Z,18.48
2019-02-12T04:07:28.670Z,18.39
2019-02-12T04:09:55.319Z,18.54
2019-02-12T04:12:21.970Z,18.63
2019-02-12T04:14:48.745Z,18.62
2019-02-12T04:17:15.386Z,18.34
2019-02-12T04:19:42.136Z,18.09
2019-02-12T04:22:08.860Z,17.97
2019-02-12T04:24:35.574Z,17.95
2019-02-12T04:27:02.235Z,17.98
2019-02-12T04:29:28.873Z,17.92
2019-02-12T04:31:55.529Z,17.82
2019-02-12T04:34:22.219Z,17.62
2019-02-12T04:36:48.923Z,17.74
2019-02-12T04:39:15.560Z,17.68
2019-02-12T04:41:42.216Z,17.66
2019-02-12T04:44:08.870Z,17.68
2019-02-12T04:46:35.519Z,17.67
2019-02-12T04:49:02.235Z,17.69
2019-02-12T04:51:28.873Z,17.68
2019-02-12T04:53:55.523Z,17.66
2019-02-12T04:56:22.178Z,17.62
2019-02-12T04:58:48.870Z,17.61
2019-02-12T05:01:15.533Z,17.59
2019-02-12T05:03:42.203Z,17.56
2019-02-12T05:06:08.851Z,17.60
2019-02-12T05:08:35.499Z,17.66
2019-02-12T05:11:02.158Z,17.64
2019-02-12T05:13:28.815Z,17.58
2019-02-12T05:15:55.468Z,17.65
2019-02-12T05:18:22.129Z,17.81
2019-02-12T05:20:48.772Z,17.77
2019-02-12T05:23:15.523Z,17.81
2019-02-12T05:25:42.173Z,17.81
2019-02-12T05:28:08.864Z,17.91
2019-02-12T05:30:35.598Z,17.98
2019-02-12T05:33:02.283Z,18.01
2019-02-12T05:35:28.936Z,18.08
2019-02-12T05:37:55.603Z,18.11
2019-02-12T05:40:22.261Z,18.12
2019-02-12T05:42:48.903Z,17.97
2019-02-12T05:45:16.850Z,18.14
2019-02-12T05:47:42.277Z,18.01
2019-02-12T05:50:08.915Z,18.00
2019-02-12T05:52:35.682Z,18.00
2019-02-12T05:55:02.322Z,18.05
2019-02-12T05:57:28.954Z,18.11
2019-02-12T05:59:55.620Z,18.14
2019-02-12T06:02:22.302Z,18.14
2019-02-12T06:04:48.952Z,18.12
2019-02-12T06:07:15.639Z,18.12
2019-02-12T06:09:42.282Z,18.04
2019-02-12T06:12:08.986Z,18.02
2019-02-12T06:14:35.626Z,17.99
2019-02-12T06:17:02.332Z,17.96
2019-02-12T06:19:28.994Z,18.02
2019-02-12T06:21:55.648Z,17.98
2019-02-12T06:24:22.287Z,18.12
2019-02-12T06:26:48.934Z,17.81
2019-02-12T06:29:15.576Z,17.78
2019-02-12T06:31:42.339Z,17.62
2019-02-12T06:34:08.977Z,17.68
2019-02-12T06:36:35.652Z,17.47
2019-02-12T06:39:02.298Z,17.67
2019-02-12T06:41:28.990Z,17.26
2019-02-12T06:43:55.646Z,17.06
2019-02-12T06:46:22.433Z,17.01
2019-02-12T06:48:49.112Z,16.80
2019-02-12T06:51:15.797Z,17.01
2019-02-12T06:53:42.548Z,16.86
2019-02-12T06:56:09.204Z,16.78
2019-02-12T06:58:35.866Z,16.72
2019-02-12T07:01:02.558Z,16.86
2019-02-12T07:03:29.203Z,17.17
2019-02-12T07:05:55.913Z,17.27
2019-02-12T07:08:22.579Z,17.46
2019-02-12T07:10:49.269Z,17.81
2019-02-12T07:13:15.944Z,17.98
2019-02-12T07:15:42.695Z,17.25
2019-02-12T07:18:09.418Z,17.17
2019-02-12T07:20:36.101Z,17.54
2019-02-12T07:23:02.764Z,17.64
2019-02-12T07:25:29.418Z,17.79
2019-02-12T07:27:56.058Z,17.81
2019-02-12T07:30:22.713Z,17.77
2019-02-12T07:32:49.375Z,17.82
2019-02-12T07:35:16.080Z,17.98
2019-02-12T07:37:42.809Z,17.97
2019-02-12T07:40:09.488Z,17.97
2019-02-12T07:42:36.159Z,17.87
2019-02-12T07:45:02.953Z,17.94
2019-02-12T07:47:29.630Z,17.95
2019-02-12T07:49:56.322Z,17.98
2019-02-12T07:52:22.985Z,17.92
2019-02-12T07:54:49.669Z,17.97
2019-02-12T07:57:16.329Z,17.92
2019-02-12T07:59:43.094Z,17.95
2019-02-12T08:02:09.786Z,17.75
2019-02-12T08:04:36.516Z,17.92
2019-02-12T08:07:03.150Z,17.90
2019-02-12T08:09:29.835Z,17.91
2019-02-12T08:11:56.556Z,17.86
2019-02-12T08:14:23.203Z,17.92
2019-02-12T08:16:49.974Z,17.86
2019-02-12T08:19:16.625Z,17.95
2019-02-12T08:21:43.296Z,17.90
2019-02-12T08:24:09.988Z,18.04
2019-02-12T08:26:36.643Z,18.06
2019-02-12T08:29:03.347Z,18.11
2019-02-12T08:31:30.015Z,18.13
2019-02-12T08:33:57.574Z,18.21
2019-02-12T08:36:24.283Z,18.41
2019-02-12T08:38:51.024Z,18.24
2019-02-12T08:41:17.699Z,18.36
2019-02-12T08:43:44.373Z,18.40
2019-02-12T08:46:11.042Z,18.03
2019-02-12T08:48:37.718Z,18.14
2019-02-12T08:51:04.382Z,18.25
2019-02-12T08:53:31.073Z,18.27
2019-02-12T08:55:57.735Z,18.35
2019-02-12T08:58:24.535Z,18.33
2019-02-12T09:00:51.205Z,18.37
2019-02-12T09:03:17.844Z,18.29
2019-02-12T09:05:44.704Z,18.39
2019-02-12T09:08:11.360Z,18.31
2019-02-12T09:10:38.005Z,18.36
2019-02-12T09:13:04.688Z,18.28
2019-02-12T09:15:31.395Z,18.24
2019-02-12T09:17:58.047Z,18.20
2019-02-12T09:20:24.853Z,18.03
2019-02-12T09:22:51.562Z,17.84
2019-02-12T09:25:18.211Z,18.08
2019-02-12T09:27:44.903Z,18.05
2019-02-12T09:30:11.550Z,18.10
2019-02-12T09:32:38.243Z,17.98
2019-02-12T09:35:05.052Z,18.03
2019-02-12T09:37:33.968Z,17.95
2019-02-12T09:39:58.336Z,18.08
2019-02-12T09:42:25.623Z,18.03
2019-02-12T09:44:52.279Z,18.04
2019-02-12T09:47:18.972Z,18.01
2019-02-12T09:49:45.712Z,18.01
2019-02-12T09:52:12.413Z,17.70
2019-02-12T09:54:39.067Z,17.89
2019-02-12T09:57:05.753Z,17.77
2019-02-12T09:59:32.415Z,17.83
2019-02-12T10:01:59.073Z,17.82
2019-02-12T10:04:25.709Z,17.72
2019-02-12T10:06:52.385Z,17.67
2019-02-12T10:09:19.069Z,17.66
2019-02-12T10:11:45.761Z,17.66
2019-02-12T10:14:12.414Z,17.67
2019-02-12T10:16:39.137Z,17.54
2019-02-12T10:19:05.824Z,17.52
2019-02-12T10:21:32.573Z,17.11
2019-02-12T10:23:59.982Z,17.41
2019-02-12T10:26:26.790Z,17.43
2019-02-12T10:28:53.665Z,17.46
2019-02-12T10:31:20.509Z,17.33
2019-02-12T10:33:48.685Z,17.46
2019-02-12T10:36:15.457Z,17.42
2019-02-12T10:38:42.111Z,17.43
2019-02-12T10:41:08.979Z,17.33
2019-02-12T10:43:35.595Z,17.29
2019-02-12T10:46:02.314Z,17.21
2019-02-12T10:48:28.982Z,17.15
2019-02-12T10:50:55.721Z,17.08
2019-02-12T10:53:22.351Z,17.18
2019-02-12T10:55:49.074Z,17.01
2019-02-12T10:58:15.761Z,16.95
2019-02-12T11:00:42.429Z,17.00
2019-02-12T11:03:09.117Z,16.95
2019-02-12T11:05:35.809Z,16.96
2019-02-12T11:08:02.469Z,17.05
2019-02-12T11:10:29.143Z,17.03
2019-02-12T11:12:55.858Z,16.87
2019-02-12T11:15:22.660Z,16.88
2019-02-12T11:17:49.457Z,17.02
2019-02-12T11:20:16.312Z,17.19
2019-02-12T11:22:43.013Z,17.22
2019-02-12T11:25:09.682Z,17.29
2019-02-12T11:27:36.318Z,17.28
2019-02-12T11:30:02.991Z,17.26
2019-02-12T11:32:29.655Z,17.63
2019-02-12T11:34:56.332Z,17.79
2019-02-12T11:37:23.000Z,18.04
2019-02-12T11:39:49.630Z,17.75
2019-02-12T11:42:16.322Z,17.80
2019-02-12T11:44:43.065Z,17.92
2019-02-12T11:47:09.813Z,18.09
2019-02-12T11:49:36.455Z,18.16
2019-02-12T11:52:03.127Z,18.30
2019-02-12T11:54:29.763Z,18.52
2019-02-12T11:56:56.473Z,18.63
2019-02-12T11:59:23.167Z,18.55
2019-02-12T12:01:49.947Z,18.24
2019-02-12T12:04:16.619Z,17.91
2019-02-12T12:06:43.428Z,17.98
2019-02-12T12:09:10.075Z,17.81
2019-02-12T12:11:36.766Z,17.78
2019-02-12T12:14:03.466Z,17.82
2019-02-12T12:16:30.264Z,17.60
2019-02-12T12:18:57.017Z,18.25
2019-02-12T12:21:23.689Z,17.92
2019-02-12T12:23:50.360Z,18.11
2019-02-12T12:26:17.026Z,18.08
2019-02-12T12:28:43.768Z,18.61
2019-02-12T12:31:10.444Z,18.29
2019-02-12T12:33:40.322Z,18.18
2019-02-12T12:36:07.109Z,18.24
2019-02-12T12:38:33.762Z,18.16
2019-02-12T12:41:01.817Z,18.31
2019-02-12T12:43:27.077Z,18.37
2019-02-12T12:45:53.819Z,18.31
2019-02-12T12:48:20.506Z,18.26
2019-02-12T12:50:47.303Z,18.43
2019-02-12T12:53:14.024Z,18.38
2019-02-12T12:55:40.713Z,18.41
2019-02-12T12:58:07.519Z,18.32
2019-02-12T13:00:34.402Z,18.28
2019-02-12T13:03:01.109Z,18.39
2019-02-12T13:05:27.786Z,18.33
2019-02-12T13:07:54.480Z,18.16
2019-02-12T13:10:21.253Z,18.27
2019-02-12T13:12:49.999Z,18.29
2019-02-12T13:15:16.686Z,18.21
2019-02-12T13:17:43.478Z,18.16
2019-02-12T13:20:10.160Z,18.16
2019-02-12T13:22:36.989Z,18.11
2019-02-12T13:25:08.678Z,18.01
2019-02-12T13:27:30.392Z,17.93
2019-02-12T13:29:57.214Z,18.07
2019-02-12T13:32:23.894Z,17.73
2019-02-12T13:34:51.182Z,17.55
2019-02-12T13:37:17.940Z,17.81
2019-02-12T13:39:44.636Z,17.97
2019-02-12T13:42:11.384Z,18.01
2019-02-12T13:44:38.074Z,17.95
2019-02-12T13:47:04.781Z,18.03
2019-02-12T13:49:31.474Z,18.10
2019-02-12T13:51:58.181Z,18.13
2019-02-12T13:54:24.868Z,18.22
2019-02-12T13:56:51.558Z,17.75
2019-02-12T13:59:18.305Z,18.08
2019-02-12T14:01:44.956Z,18.18
2019-02-12T14:04:12.128Z,18.12
2019-02-12T14:06:38.875Z,18.09
2019-02-12T14:09:05.563Z,18.17
2019-02-12T14:11:32.315Z,18.02
2019-02-12T14:13:59.149Z,18.12
2019-02-12T14:16:25.847Z,18.03
2019-02-12T14:18:52.615Z,18.35
2019-02-12T14:21:19.389Z,17.78
2019-02-12T14:23:46.259Z,18.07
2019-02-12T14:26:13.141Z,18.14
2019-02-12T14:28:39.865Z,18.10
2019-02-12T14:31:06.540Z,18.09
2019-02-12T14:33:33.223Z,18.00
2019-02-12T14:35:59.934Z,18.01
2019-02-12T14:38:26.670Z,18.10
2019-02-12T14:40:53.376Z,18.03
2019-02-12T14:43:20.084Z,17.99
2019-02-12T14:45:46.774Z,18.03
2019-02-12T14:48:13.458Z,17.89
2019-02-12T14:50:40.326Z,17.90
2019-02-12T14:53:07.027Z,17.98
2019-02-12T14:55:34.225Z,17.95
2019-02-12T14:58:00.556Z,17.96
2019-02-12T15:00:27.292Z,17.90
2019-02-12T15:02:54.028Z,17.92
2019-02-12T15:05:20.771Z,17.75
2019-02-12T15:07:47.787Z,17.46
2019-02-12T15:10:14.471Z,17.63
2019-02-12T15:12:43.454Z,17.72
2019-02-12T15:15:10.199Z,17.58
2019-02-12T15:17:36.880Z,17.51
2019-02-12T15:20:03.568Z,17.55
2019-02-12T15:22:30.410Z,17.58
2019-02-12T15:24:57.084Z,17.54
2019-02-12T15:27:23.808Z,17.33
2019-02-12T15:29:50.482Z,17.41
2019-02-12T15:32:17.182Z,17.44
2019-02-12T15:34:43.879Z,17.37
2019-02-12T15:37:10.602Z,17.34
2019-02-12T15:39:37.278Z,17.25
2019-02-12T15:42:04.008Z,17.28
2019-02-12T15:44:30.700Z,17.36
2019-02-12T15:46:57.407Z,17.21
2019-02-12T15:49:24.250Z,17.12
2019-02-12T15:51:50.917Z,16.57
2019-02-12T15:54:17.642Z,16.97
2019-02-12T15:56:44.334Z,17.04
2019-02-12T15:59:12.378Z,17.02
2019-02-12T16:01:37.830Z,16.97
2019-02-12T16:04:04.502Z,17.03
2019-02-12T16:06:31.182Z,16.93
2019-02-12T16:08:57.949Z,17.03
2019-02-12T16:11:24.623Z,17.00
2019-02-12T16:13:51.300Z,16.89
2019-02-12T16:16:18.166Z,16.90
2019-02-12T16:18:46.036Z,16.81
2019-02-12T16:21:11.633Z,16.77
2019-02-12T16:23:38.367Z,16.66
2019-02-12T16:26:05.107Z,16.75
2019-02-12T16:28:34.891Z,16.76
2019-02-12T16:31:01.600Z,16.63
2019-02-12T16:33:28.323Z,16.72
2019-02-12T16:35:55.040Z,16.72
2019-02-12T16:38:21.727Z,16.61
2019-02-12T16:40:48.440Z,16.59
2019-02-12T16:43:15.286Z,16.65
2019-02-12T16:45:41.953Z,16.56
2019-02-12T16:48:08.759Z,16.57
2019-02-12T16:50:35.463Z,16.51
2019-02-12T16:53:02.245Z,16.59
2019-02-12T16:55:28.961Z,16.56
2019-02-12T16:57:55.654Z,16.56
2019-02-12T17:00:22.382Z,16.41
2019-02-12T17:02:49.211Z,16.28
2019-02-12T17:05:15.944Z,16.49
2019-02-12T17:07:42.782Z,16.31
2019-02-12T17:10:09.477Z,16.41
2019-02-12T17:12:36.161Z,16.31
2019-02-12T17:15:02.843Z,16.36
2019-02-12T17:17:29.581Z,16.30
2019-02-12T17:19:56.248Z,16.32
2019-02-12T17:22:23.020Z,16.36
2019-02-12T17:24:49.759Z,16.28
2019-02-12T17:27:16.442Z,16.32
2019-02-12T17:29:43.145Z,16.30
2019-02-12T17:32:09.862Z,16.27
2019-02-12T17:34:36.539Z,16.10
2019-02-12T17:37:04.607Z,16.20
2019-02-12T17:39:32.882Z,16.11
2019-02-12T17:41:59.564Z,16.10
2019-02-12T17:44:26.325Z,16.12
2019-02-12T17:46:53.273Z,16.14
2019-02-12T17:49:19.905Z,16.16
2019-02-12T17:51:46.642Z,16.12
2019-02-12T17:54:13.331Z,16.08
2019-02-12T17:56:40.065Z,16.05
2019-02-12T17:59:06.733Z,16.07
2019-02-12T18:01:33.416Z,16.01
2019-02-12T18:04:00.096Z,16.03
2019-02-12T18:06:26.789Z,16.01
2019-02-12T18:08:53.601Z,15.95
2019-02-12T18:11:20.488Z,15.90
2019-02-12T18:13:47.235Z,15.86
2019-02-12T18:16:13.981Z,15.93
2019-02-12T18:18:41.692Z,15.92
2019-02-12T18:21:07.479Z,15.92
2019-02-12T18:23:34.135Z,15.86
2019-02-12T18:26:00.830Z,15.86
2019-02-12T18:28:27.510Z,15.83
2019-02-12T18:30:54.192Z,15.84
2019-02-12T18:33:20.877Z,15.83
2019-02-12T18:35:47.546Z,15.73
2019-02-12T18:38:14.266Z,15.74
2019-02-12T18:40:40.938Z,15.66
2019-02-12T18:43:07.615Z,15.72
2019-02-12T18:45:34.309Z,15.66
2019-02-12T18:48:00.990Z,15.67
2019-02-12T18:50:27.681Z,15.63
2019-02-12T18:52:54.353Z,15.66
2019-02-12T18:55:21.034Z,15.59
2019-02-12T18:57:47.726Z,15.62
2019-02-12T19:00:14.456Z,15.55
2019-02-12T19:02:41.193Z,15.61
2019-02-12T19:05:07.911Z,15.55
2019-02-12T19:07:34.599Z,15.52
2019-02-12T19:10:01.273Z,15.50
2019-02-12T19:12:27.987Z,15.48
2019-02-12T19:14:54.662Z,15.47
2019-02-12T19:17:21.374Z,15.49
2019-02-12T19:19:48.064Z,15.51
2019-02-12T19:22:14.805Z,15.52
2019-02-12T19:24:41.490Z,15.50
2019-02-12T19:27:08.162Z,15.51
2019-02-12T19:29:34.926Z,15.49
2019-02-12T19:32:01.599Z,15.43
2019-02-12T19:34:28.274Z,15.44
2019-02-12T19:36:54.962Z,15.45
2019-02-12T19:39:21.676Z,15.43
2019-02-12T19:41:48.355Z,15.43
2019-02-12T19:44:15.022Z,15.40
2019-02-12T19:46:41.710Z,15.37
2019-02-12T19:49:08.498Z,15.29
2019-02-12T19:51:35.132Z,15.20
2019-02-12T19:54:01.808Z,15.30
2019-02-12T19:56:28.477Z,15.45
2019-02-12T19:58:55.188Z,15.68
2019-02-12T20:01:21.907Z,15.64
2019-02-12T20:06:53.752Z,15.52
2019-02-12T20:09:20.546Z,15.39
2019-02-12T20:11:47.233Z,15.33
2019-02-12T20:14:14.280Z,15.24
2019-02-12T20:16:40.989Z,15.25
2019-02-12T20:19:07.670Z,15.25
2019-02-12T20:21:34.360Z,15.25
2019-02-12T20:24:01.071Z,15.23
2019-02-12T20:26:27.827Z,15.21
2019-02-12T20:28:54.550Z,15.19
2019-02-12T20:31:21.259Z,15.19
2019-02-12T20:33:47.935Z,15.20
2019-02-12T20:36:14.697Z,15.19
2019-02-12T20:38:41.382Z,15.17
2019-02-12T20:41:08.191Z,15.18
2019-02-12T20:43:34.891Z,15.20
2019-02-12T20:46:01.657Z,15.19
2019-02-12T20:48:28.386Z,15.19
2019-02-12T20:50:55.058Z,15.15
2019-02-12T20:56:16.894Z,15.19
2019-02-12T20:58:43.575Z,15.22
2019-02-12T21:01:10.261Z,15.16
2019-02-12T21:03:36.933Z,15.20
2019-02-12T21:06:03.609Z,15.16
2019-02-12T21:08:30.290Z,15.17
2019-02-12T21:10:57.054Z,15.14
2019-02-12T21:13:23.728Z,15.19
2019-02-12T21:15:50.407Z,15.16
2019-02-12T21:18:17.085Z,15.17
2019-02-12T21:20:43.773Z,15.15
2019-02-12T21:23:10.465Z,15.20
2019-02-12T21:25:37.149Z,15.19
2019-02-12T21:28:03.830Z,15.16
2019-02-12T21:30:30.522Z,15.15
2019-02-12T21:32:57.267Z,15.20
2019-02-12T21:35:23.941Z,15.13
2019-02-12T21:37:53.798Z,15.14
2019-02-12T21:40:20.458Z,15.12
2019-02-12T21:42:47.135Z,15.20
2019-02-12T21:45:13.797Z,15.14
2019-02-12T21:47:40.448Z,15.15
2019-02-12T21:50:07.123Z,15.14
2019-02-12T21:52:33.795Z,15.16
2019-02-12T21:55:00.460Z,15.15
2019-02-12T21:57:31.871Z,15.16
2019-02-12T21:59:53.810Z,15.14
2019-02-12T22:02:20.478Z,15.13
2019-02-12T22:04:48.659Z,15.10
2019-02-12T22:07:13.797Z,15.17
2019-02-12T22:09:40.463Z,15.18
2019-02-12T22:12:07.132Z,15.13
2019-02-12T22:14:33.780Z,15.16
2019-02-12T22:17:00.434Z,15.16
2019-02-12T22:19:27.093Z,15.15
2019-02-12T22:21:53.752Z,15.16
2019-02-12T22:24:20.471Z,15.15
2019-02-12T22:26:47.140Z,15.12
2019-02-12T22:29:13.809Z,15.16
2019-02-12T22:31:40.464Z,15.12
2019-02-12T22:34:07.275Z,15.18
2019-02-12T22:36:33.939Z,15.10
2019-02-12T22:39:00.601Z,15.11
2019-02-12T22:41:27.254Z,15.05
2019-02-12T22:43:53.936Z,15.08
2019-02-12T22:46:20.644Z,15.05
2019-02-12T22:48:47.313Z,15.06
2019-02-12T22:51:13.971Z,14.99
2019-02-12T22:53:40.633Z,15.03
2019-02-12T22:56:07.313Z,15.02
2019-02-12T22:58:34.042Z,15.01
2019-02-12T23:01:00.717Z,14.98
2019-02-12T23:03:27.554Z,15.00
2019-02-12T23:05:54.233Z,14.98
2019-02-12T23:08:20.911Z,14.96
2019-02-12T23:10:47.789Z,14.86
2019-02-12T23:13:14.486Z,14.93
2019-02-12T23:15:41.252Z,14.85
2019-02-12T23:18:07.933Z,14.89
2019-02-12T23:20:34.600Z,14.84
2019-02-12T23:23:01.286Z,14.91
2019-02-12T23:25:27.974Z,14.86
2019-02-12T23:27:57.559Z,14.89
2019-02-12T23:30:21.339Z,14.89
2019-02-12T23:32:49.190Z,14.88
2019-02-12T23:35:14.754Z,14.79
2019-02-12T23:37:41.495Z,14.83
2019-02-12T23:40:08.174Z,14.83
2019-02-12T23:42:34.860Z,14.84
2019-02-12T23:45:01.538Z,14.80
2019-02-12T23:47:28.238Z,14.81
2019-02-12T23:49:54.907Z,14.74
2019-02-12T23:52:21.591Z,14.78
2019-02-12T23:54:48.266Z,14.78
2019-02-12T23:57:14.936Z,14.81
2019-02-12T23:59:41.614Z,14.78
